sensor_id;sensor_type;location;lat;lon;timestamp;P1;durP1;ratioP1;P2;durP2;ratioP2
974;SDS011;6115;49.296;10.602;2024-01-07T00:04:31;71.70;;;17.57;;
974;SDS011;6115;49.296;10.602;2024-01-07T00:09:34;71.30;;;17.20;;
974;SDS011;6115;49.296;10.602;2024-01-07T00:14:34;70.80;;;17.57;;
974;SDS011;6115;49.296;10.602;2024-01-07T00:19:35;70.60;;;17.43;;
974;SDS011;6115;49.296;10.602;2024-01-07T00:24:37;71.07;;;17.00;;
974;SDS011;6115;49.296;10.602;2024-01-07T00:29:38;72.53;;;18.30;;
974;SDS011;6115;49.296;10.602;2024-01-07T00:34:38;71.10;;;17.90;;
974;SDS011;6115;49.296;10.602;2024-01-07T00:39:39;71.63;;;17.07;;
974;SDS011;6115;49.296;10.602;2024-01-07T00:44:42;73.90;;;17.17;;
974;SDS011;6115;49.296;10.602;2024-01-07T00:49:42;72.60;;;18.87;;
974;SDS011;6115;49.296;10.602;2024-01-07T00:54:43;74.83;;;18.63;;
974;SDS011;6115;49.296;10.602;2024-01-07T00:59:43;71.07;;;17.67;;
974;SDS011;6115;49.296;10.602;2024-01-07T01:04:44;71.53;;;17.40;;
974;SDS011;6115;49.296;10.602;2024-01-07T01:09:44;71.77;;;18.27;;
974;SDS011;6115;49.296;10.602;2024-01-07T01:14:45;71.97;;;17.70;;
974;SDS011;6115;49.296;10.602;2024-01-07T01:19:46;71.80;;;17.80;;
974;SDS011;6115;49.296;10.602;2024-01-07T01:24:46;72.97;;;20.20;;
974;SDS011;6115;49.296;10.602;2024-01-07T01:29:48;78.33;;;19.30;;
974;SDS011;6115;49.296;10.602;2024-01-07T01:34:49;73.23;;;18.73;;
974;SDS011;6115;49.296;10.602;2024-01-07T01:39:50;71.17;;;17.07;;
974;SDS011;6115;49.296;10.602;2024-01-07T01:44:50;74.27;;;19.10;;
974;SDS011;6115;49.296;10.602;2024-01-07T01:49:52;70.47;;;16.80;;
974;SDS011;6115;49.296;10.602;2024-01-07T01:54:52;73.20;;;17.20;;
974;SDS011;6115;49.296;10.602;2024-01-07T01:59:53;71.90;;;19.20;;
974;SDS011;6115;49.296;10.602;2024-01-07T02:04:55;72.50;;;19.40;;
974;SDS011;6115;49.296;10.602;2024-01-07T02:09:55;74.47;;;19.50;;
974;SDS011;6115;49.296;10.602;2024-01-07T02:14:56;75.50;;;19.80;;
974;SDS011;6115;49.296;10.602;2024-01-07T02:19:57;76.17;;;19.87;;
974;SDS011;6115;49.296;10.602;2024-01-07T02:24:57;72.93;;;18.77;;
974;SDS011;6115;49.296;10.602;2024-01-07T02:29:58;71.60;;;17.50;;
974;SDS011;6115;49.296;10.602;2024-01-07T02:34:58;77.83;;;19.17;;
974;SDS011;6115;49.296;10.602;2024-01-07T02:39:59;72.30;;;17.10;;
974;SDS011;6115;49.296;10.602;2024-01-07T02:44:59;71.70;;;17.70;;
974;SDS011;6115;49.296;10.602;2024-01-07T02:50:00;71.17;;;18.10;;
974;SDS011;6115;49.296;10.602;2024-01-07T02:55:00;74.10;;;18.23;;
974;SDS011;6115;49.296;10.602;2024-01-07T03:00:04;74.23;;;18.80;;
974;SDS011;6115;49.296;10.602;2024-01-07T03:05:05;74.30;;;20.07;;
974;SDS011;6115;49.296;10.602;2024-01-07T03:10:06;72.23;;;19.60;;
974;SDS011;6115;49.296;10.602;2024-01-07T03:15:07;72.37;;;19.30;;
974;SDS011;6115;49.296;10.602;2024-01-07T03:20:08;74.40;;;19.93;;
974;SDS011;6115;49.296;10.602;2024-01-07T03:25:10;73.47;;;19.67;;
974;SDS011;6115;49.296;10.602;2024-01-07T03:30:10;73.10;;;18.90;;
974;SDS011;6115;49.296;10.602;2024-01-07T03:35:11;73.20;;;19.33;;
974;SDS011;6115;49.296;10.602;2024-01-07T03:40:12;72.90;;;19.43;;
974;SDS011;6115;49.296;10.602;2024-01-07T03:45:12;75.50;;;19.70;;
974;SDS011;6115;49.296;10.602;2024-01-07T03:50:13;74.17;;;18.87;;
974;SDS011;6115;49.296;10.602;2024-01-07T03:55:13;80.37;;;18.53;;
974;SDS011;6115;49.296;10.602;2024-01-07T04:00:14;71.50;;;18.03;;
974;SDS011;6115;49.296;10.602;2024-01-07T04:05:15;75.87;;;21.60;;
974;SDS011;6115;49.296;10.602;2024-01-07T04:10:18;79.00;;;22.17;;
974;SDS011;6115;49.296;10.602;2024-01-07T04:15:19;76.00;;;21.70;;
974;SDS011;6115;49.296;10.602;2024-01-07T04:20:20;73.47;;;19.80;;
974;SDS011;6115;49.296;10.602;2024-01-07T04:25:21;73.47;;;18.90;;
974;SDS011;6115;49.296;10.602;2024-01-07T04:30:21;73.37;;;19.07;;
974;SDS011;6115;49.296;10.602;2024-01-07T04:35:22;73.10;;;19.67;;
974;SDS011;6115;49.296;10.602;2024-01-07T04:40:23;74.30;;;19.47;;
974;SDS011;6115;49.296;10.602;2024-01-07T04:45:23;75.10;;;19.20;;
974;SDS011;6115;49.296;10.602;2024-01-07T04:50:24;73.40;;;19.67;;
974;SDS011;6115;49.296;10.602;2024-01-07T04:55:24;72.67;;;18.30;;
974;SDS011;6115;49.296;10.602;2024-01-07T05:00:25;73.73;;;19.67;;
974;SDS011;6115;49.296;10.602;2024-01-07T05:05:25;73.47;;;19.17;;
974;SDS011;6115;49.296;10.602;2024-01-07T05:10:26;73.87;;;18.87;;
974;SDS011;6115;49.296;10.602;2024-01-07T05:15:26;81.60;;;19.40;;
974;SDS011;6115;49.296;10.602;2024-01-07T05:20:27;73.80;;;18.73;;
974;SDS011;6115;49.296;10.602;2024-01-07T05:25:28;73.73;;;19.90;;
974;SDS011;6115;49.296;10.602;2024-01-07T05:30:30;77.50;;;20.40;;
974;SDS011;6115;49.296;10.602;2024-01-07T05:35:30;74.10;;;19.63;;
974;SDS011;6115;49.296;10.602;2024-01-07T05:40:31;78.00;;;21.00;;
974;SDS011;6115;49.296;10.602;2024-01-07T05:45:32;77.30;;;19.67;;
974;SDS011;6115;49.296;10.602;2024-01-07T05:50:32;72.87;;;19.40;;
974;SDS011;6115;49.296;10.602;2024-01-07T05:55:33;74.20;;;19.80;;
974;SDS011;6115;49.296;10.602;2024-01-07T06:00:34;72.87;;;18.57;;
974;SDS011;6115;49.296;10.602;2024-01-07T06:05:34;73.07;;;19.70;;
974;SDS011;6115;49.296;10.602;2024-01-07T06:10:35;72.23;;;19.07;;
974;SDS011;6115;49.296;10.602;2024-01-07T06:15:36;72.23;;;19.27;;
974;SDS011;6115;49.296;10.602;2024-01-07T06:20:36;71.90;;;18.40;;
974;SDS011;6115;49.296;10.602;2024-01-07T06:25:37;75.20;;;20.67;;
974;SDS011;6115;49.296;10.602;2024-01-07T06:30:39;74.37;;;20.70;;
974;SDS011;6115;49.296;10.602;2024-01-07T06:35:39;72.50;;;20.50;;
974;SDS011;6115;49.296;10.602;2024-01-07T06:40:40;79.97;;;22.23;;
974;SDS011;6115;49.296;10.602;2024-01-07T06:45:41;73.20;;;20.33;;
974;SDS011;6115;49.296;10.602;2024-01-07T06:50:43;72.37;;;19.70;;
974;SDS011;6115;49.296;10.602;2024-01-07T06:55:44;72.77;;;20.27;;
974;SDS011;6115;49.296;10.602;2024-01-07T07:00:44;72.70;;;20.17;;
974;SDS011;6115;49.296;10.602;2024-01-07T07:05:45;75.10;;;20.37;;
974;SDS011;6115;49.296;10.602;2024-01-07T07:10:45;71.93;;;19.00;;
974;SDS011;6115;49.296;10.602;2024-01-07T07:15:46;72.30;;;19.40;;
974;SDS011;6115;49.296;10.602;2024-01-07T07:20:47;73.30;;;20.67;;
974;SDS011;6115;49.296;10.602;2024-01-07T07:25:47;74.10;;;20.37;;
974;SDS011;6115;49.296;10.602;2024-01-07T07:30:48;72.40;;;19.40;;
974;SDS011;6115;49.296;10.602;2024-01-07T07:35:49;71.93;;;19.37;;
974;SDS011;6115;49.296;10.602;2024-01-07T07:40:49;74.00;;;20.97;;
974;SDS011;6115;49.296;10.602;2024-01-07T07:45:52;72.40;;;19.70;;
974;SDS011;6115;49.296;10.602;2024-01-07T07:50:53;73.70;;;20.93;;
974;SDS011;6115;49.296;10.602;2024-01-07T07:55:53;72.10;;;19.20;;
974;SDS011;6115;49.296;10.602;2024-01-07T08:00:54;74.20;;;21.23;;
974;SDS011;6115;49.296;10.602;2024-01-07T08:05:55;74.90;;;21.40;;
974;SDS011;6115;49.296;10.602;2024-01-07T08:10:55;73.30;;;20.50;;
974;SDS011;6115;49.296;10.602;2024-01-07T08:15:56;73.37;;;20.33;;
974;SDS011;6115;49.296;10.602;2024-01-07T08:20:57;73.47;;;19.90;;
974;SDS011;6115;49.296;10.602;2024-01-07T08:25:57;72.67;;;18.67;;
974;SDS011;6115;49.296;10.602;2024-01-07T08:30:58;75.40;;;18.87;;
974;SDS011;6115;49.296;10.602;2024-01-07T08:35:58;80.07;;;20.53;;
974;SDS011;6115;49.296;10.602;2024-01-07T08:40:59;73.53;;;20.17;;
974;SDS011;6115;49.296;10.602;2024-01-07T08:46:00;72.50;;;19.30;;
974;SDS011;6115;49.296;10.602;2024-01-07T08:51:00;74.63;;;20.00;;
974;SDS011;6115;49.296;10.602;2024-01-07T08:56:01;71.50;;;17.60;;
974;SDS011;6115;49.296;10.602;2024-01-07T09:01:02;70.97;;;17.13;;
974;SDS011;6115;49.296;10.602;2024-01-07T09:06:03;74.10;;;20.23;;
974;SDS011;6115;49.296;10.602;2024-01-07T09:11:03;72.07;;;17.80;;
974;SDS011;6115;49.296;10.602;2024-01-07T09:16:06;73.70;;;18.90;;
974;SDS011;6115;49.296;10.602;2024-01-07T09:21:09;73.90;;;18.20;;
974;SDS011;6115;49.296;10.602;2024-01-07T09:26:10;72.30;;;18.30;;
974;SDS011;6115;49.296;10.602;2024-01-07T09:31:11;75.20;;;19.20;;
974;SDS011;6115;49.296;10.602;2024-01-07T09:36:11;74.57;;;18.23;;
974;SDS011;6115;49.296;10.602;2024-01-07T09:41:12;72.00;;;17.43;;
974;SDS011;6115;49.296;10.602;2024-01-07T09:46:13;74.03;;;19.77;;
974;SDS011;6115;49.296;10.602;2024-01-07T09:51:14;72.60;;;18.40;;
974;SDS011;6115;49.296;10.602;2024-01-07T09:56:19;74.03;;;19.87;;
974;SDS011;6115;49.296;10.602;2024-01-07T10:01:23;74.33;;;19.27;;
974;SDS011;6115;49.296;10.602;2024-01-07T10:06:25;80.00;;;19.13;;
974;SDS011;6115;49.296;10.602;2024-01-07T10:11:26;71.27;;;17.20;;
974;SDS011;6115;49.296;10.602;2024-01-07T10:16:27;71.67;;;17.27;;
974;SDS011;6115;49.296;10.602;2024-01-07T10:21:28;74.27;;;19.00;;
974;SDS011;6115;49.296;10.602;2024-01-07T10:26:28;71.97;;;18.30;;
974;SDS011;6115;49.296;10.602;2024-01-07T10:31:29;72.37;;;18.20;;
974;SDS011;6115;49.296;10.602;2024-01-07T10:36:29;73.80;;;20.27;;
974;SDS011;6115;49.296;10.602;2024-01-07T10:41:31;74.27;;;18.87;;
974;SDS011;6115;49.296;10.602;2024-01-07T10:46:34;72.27;;;19.17;;
974;SDS011;6115;49.296;10.602;2024-01-07T10:51:35;72.17;;;18.73;;
974;SDS011;6115;49.296;10.602;2024-01-07T10:56:41;74.67;;;19.70;;
974;SDS011;6115;49.296;10.602;2024-01-07T11:01:46;73.87;;;19.50;;
974;SDS011;6115;49.296;10.602;2024-01-07T11:06:52;76.30;;;20.37;;
974;SDS011;6115;49.296;10.602;2024-01-07T11:12:00;71.10;;;17.17;;
974;SDS011;6115;49.296;10.602;2024-01-07T11:17:01;73.80;;;19.40;;
974;SDS011;6115;49.296;10.602;2024-01-07T11:22:22;74.37;;;19.97;;
974;SDS011;6115;49.296;10.602;2024-01-07T11:27:29;75.33;;;19.47;;
974;SDS011;6115;49.296;10.602;2024-01-07T11:32:31;74.37;;;20.67;;
974;SDS011;6115;49.296;10.602;2024-01-07T11:37:34;77.60;;;20.30;;
974;SDS011;6115;49.296;10.602;2024-01-07T11:42:35;72.87;;;19.70;;
974;SDS011;6115;49.296;10.602;2024-01-07T11:47:36;72.77;;;19.07;;
974;SDS011;6115;49.296;10.602;2024-01-07T11:52:37;75.37;;;20.03;;
974;SDS011;6115;49.296;10.602;2024-01-07T11:57:39;73.40;;;19.30;;
974;SDS011;6115;49.296;10.602;2024-01-07T12:02:42;74.37;;;18.53;;
974;SDS011;6115;49.296;10.602;2024-01-07T12:07:42;73.57;;;20.07;;
974;SDS011;6115;49.296;10.602;2024-01-07T12:12:43;75.30;;;19.53;;
974;SDS011;6115;49.296;10.602;2024-01-07T12:17:48;75.20;;;21.07;;
974;SDS011;6115;49.296;10.602;2024-01-07T12:22:57;72.90;;;19.23;;
974;SDS011;6115;49.296;10.602;2024-01-07T12:28:07;73.40;;;19.10;;
974;SDS011;6115;49.296;10.602;2024-01-07T12:33:09;73.37;;;19.33;;
974;SDS011;6115;49.296;10.602;2024-01-07T12:38:09;74.67;;;20.80;;
974;SDS011;6115;49.296;10.602;2024-01-07T12:43:10;73.60;;;19.40;;
974;SDS011;6115;49.296;10.602;2024-01-07T12:48:11;75.17;;;21.90;;
974;SDS011;6115;49.296;10.602;2024-01-07T12:53:11;78.53;;;23.63;;
974;SDS011;6115;49.296;10.602;2024-01-07T12:58:12;79.07;;;22.40;;
974;SDS011;6115;49.296;10.602;2024-01-07T13:03:13;75.77;;;23.50;;
974;SDS011;6115;49.296;10.602;2024-01-07T13:08:17;74.07;;;21.30;;
974;SDS011;6115;49.296;10.602;2024-01-07T13:13:18;75.97;;;20.40;;
974;SDS011;6115;49.296;10.602;2024-01-07T13:18:19;73.77;;;20.07;;
974;SDS011;6115;49.296;10.602;2024-01-07T13:23:20;74.50;;;21.60;;
974;SDS011;6115;49.296;10.602;2024-01-07T13:28:20;75.73;;;22.63;;
974;SDS011;6115;49.296;10.602;2024-01-07T13:33:21;73.80;;;20.80;;
974;SDS011;6115;49.296;10.602;2024-01-07T13:38:21;73.63;;;20.03;;
974;SDS011;6115;49.296;10.602;2024-01-07T13:43:22;73.40;;;21.27;;
974;SDS011;6115;49.296;10.602;2024-01-07T13:48:25;75.80;;;21.50;;
974;SDS011;6115;49.296;10.602;2024-01-07T13:53:26;80.07;;;22.90;;
974;SDS011;6115;49.296;10.602;2024-01-07T13:58:26;76.20;;;20.30;;
974;SDS011;6115;49.296;10.602;2024-01-07T14:03:27;72.50;;;19.87;;
974;SDS011;6115;49.296;10.602;2024-01-07T14:08:30;73.87;;;19.70;;
974;SDS011;6115;49.296;10.602;2024-01-07T14:13:30;73.70;;;21.13;;
974;SDS011;6115;49.296;10.602;2024-01-07T14:18:31;72.87;;;20.57;;
974;SDS011;6115;49.296;10.602;2024-01-07T14:23:32;75.37;;;20.87;;
974;SDS011;6115;49.296;10.602;2024-01-07T14:28:33;75.20;;;24.20;;
974;SDS011;6115;49.296;10.602;2024-01-07T14:33:35;73.20;;;20.47;;
974;SDS011;6115;49.296;10.602;2024-01-07T14:38:36;75.23;;;22.30;;
974;SDS011;6115;49.296;10.602;2024-01-07T14:43:36;73.50;;;20.70;;
974;SDS011;6115;49.296;10.602;2024-01-07T14:48:37;73.07;;;20.20;;
974;SDS011;6115;49.296;10.602;2024-01-07T14:53:37;73.37;;;20.10;;
974;SDS011;6115;49.296;10.602;2024-01-07T14:58:38;72.00;;;18.40;;
974;SDS011;6115;49.296;10.602;2024-01-07T15:03:38;73.37;;;20.43;;
974;SDS011;6115;49.296;10.602;2024-01-07T15:08:40;82.33;;;20.50;;
974;SDS011;6115;49.296;10.602;2024-01-07T15:13:41;73.27;;;19.90;;
974;SDS011;6115;49.296;10.602;2024-01-07T15:18:43;72.37;;;19.23;;
974;SDS011;6115;49.296;10.602;2024-01-07T15:23:43;73.30;;;20.73;;
974;SDS011;6115;49.296;10.602;2024-01-07T15:28:44;73.27;;;19.50;;
974;SDS011;6115;49.296;10.602;2024-01-07T15:33:44;74.30;;;20.10;;
974;SDS011;6115;49.296;10.602;2024-01-07T15:38:45;74.97;;;19.77;;
974;SDS011;6115;49.296;10.602;2024-01-07T15:43:46;74.97;;;21.03;;
974;SDS011;6115;49.296;10.602;2024-01-07T15:48:46;74.20;;;20.00;;
974;SDS011;6115;49.296;10.602;2024-01-07T15:53:47;72.07;;;18.23;;
974;SDS011;6115;49.296;10.602;2024-01-07T15:58:47;72.70;;;18.47;;
974;SDS011;6115;49.296;10.602;2024-01-07T16:03:48;81.77;;;20.70;;
974;SDS011;6115;49.296;10.602;2024-01-07T16:08:48;73.40;;;19.40;;
974;SDS011;6115;49.296;10.602;2024-01-07T16:13:49;74.50;;;19.83;;
974;SDS011;6115;49.296;10.602;2024-01-07T16:18:49;74.70;;;19.70;;
974;SDS011;6115;49.296;10.602;2024-01-07T16:23:50;72.43;;;18.70;;
974;SDS011;6115;49.296;10.602;2024-01-07T16:28:50;73.70;;;19.60;;
974;SDS011;6115;49.296;10.602;2024-01-07T16:33:52;73.07;;;18.60;;
974;SDS011;6115;49.296;10.602;2024-01-07T16:38:53;73.80;;;19.80;;
974;SDS011;6115;49.296;10.602;2024-01-07T16:43:55;73.43;;;19.97;;
974;SDS011;6115;49.296;10.602;2024-01-07T16:48:56;73.60;;;19.97;;
974;SDS011;6115;49.296;10.602;2024-01-07T16:53:56;76.80;;;19.27;;
974;SDS011;6115;49.296;10.602;2024-01-07T16:58:57;72.50;;;18.80;;
974;SDS011;6115;49.296;10.602;2024-01-07T17:03:57;74.10;;;20.40;;
974;SDS011;6115;49.296;10.602;2024-01-07T17:08:58;72.67;;;19.20;;
974;SDS011;6115;49.296;10.602;2024-01-07T17:13:58;75.67;;;20.90;;
974;SDS011;6115;49.296;10.602;2024-01-07T17:18:59;74.50;;;20.97;;
974;SDS011;6115;49.296;10.602;2024-01-07T17:24:00;74.37;;;20.30;;
974;SDS011;6115;49.296;10.602;2024-01-07T17:29:00;75.47;;;19.80;;
974;SDS011;6115;49.296;10.602;2024-01-07T17:34:01;74.40;;;20.63;;
974;SDS011;6115;49.296;10.602;2024-01-07T17:39:02;73.37;;;19.67;;
974;SDS011;6115;49.296;10.602;2024-01-07T17:44:06;73.73;;;19.50;;
974;SDS011;6115;49.296;10.602;2024-01-07T17:49:07;76.73;;;21.70;;
974;SDS011;6115;49.296;10.602;2024-01-07T17:54:08;77.97;;;23.37;;
974;SDS011;6115;49.296;10.602;2024-01-07T17:59:09;75.57;;;20.97;;
974;SDS011;6115;49.296;10.602;2024-01-07T18:04:10;75.27;;;21.37;;
974;SDS011;6115;49.296;10.602;2024-01-07T18:09:11;73.57;;;20.23;;
974;SDS011;6115;49.296;10.602;2024-01-07T18:14:11;74.07;;;20.20;;
974;SDS011;6115;49.296;10.602;2024-01-07T18:19:14;73.40;;;19.80;;
974;SDS011;6115;49.296;10.602;2024-01-07T18:24:14;74.70;;;21.03;;
974;SDS011;6115;49.296;10.602;2024-01-07T18:29:15;73.07;;;19.73;;
974;SDS011;6115;49.296;10.602;2024-01-07T18:34:15;73.37;;;19.60;;
974;SDS011;6115;49.296;10.602;2024-01-07T18:39:16;73.50;;;20.07;;
974;SDS011;6115;49.296;10.602;2024-01-07T18:44:17;73.00;;;18.83;;
974;SDS011;6115;49.296;10.602;2024-01-07T18:49:18;73.47;;;19.47;;
974;SDS011;6115;49.296;10.602;2024-01-07T18:54:18;72.77;;;19.13;;
974;SDS011;6115;49.296;10.602;2024-01-07T18:59:20;73.83;;;20.10;;
974;SDS011;6115;49.296;10.602;2024-01-07T19:04:21;74.13;;;19.33;;
974;SDS011;6115;49.296;10.602;2024-01-07T19:09:22;73.80;;;19.63;;
974;SDS011;6115;49.296;10.602;2024-01-07T19:14:22;73.60;;;19.50;;
974;SDS011;6115;49.296;10.602;2024-01-07T19:19:23;73.00;;;18.70;;
974;SDS011;6115;49.296;10.602;2024-01-07T19:24:24;73.43;;;20.07;;
974;SDS011;6115;49.296;10.602;2024-01-07T19:29:25;72.47;;;17.77;;
974;SDS011;6115;49.296;10.602;2024-01-07T19:34:27;73.70;;;19.10;;
974;SDS011;6115;49.296;10.602;2024-01-07T19:39:29;73.07;;;19.33;;
974;SDS011;6115;49.296;10.602;2024-01-07T19:44:30;72.20;;;17.80;;
974;SDS011;6115;49.296;10.602;2024-01-07T19:49:31;72.73;;;18.10;;
974;SDS011;6115;49.296;10.602;2024-01-07T19:54:32;73.20;;;19.20;;
974;SDS011;6115;49.296;10.602;2024-01-07T19:59:32;74.17;;;19.60;;
974;SDS011;6115;49.296;10.602;2024-01-07T20:04:35;72.80;;;18.10;;
974;SDS011;6115;49.296;10.602;2024-01-07T20:09:36;73.50;;;19.00;;
974;SDS011;6115;49.296;10.602;2024-01-07T20:14:37;73.97;;;19.70;;
974;SDS011;6115;49.296;10.602;2024-01-07T20:19:37;72.20;;;17.80;;
974;SDS011;6115;49.296;10.602;2024-01-07T20:24:39;72.70;;;18.07;;
974;SDS011;6115;49.296;10.602;2024-01-07T20:29:40;72.47;;;18.10;;
974;SDS011;6115;49.296;10.602;2024-01-07T20:34:40;72.60;;;18.10;;
974;SDS011;6115;49.296;10.602;2024-01-07T20:39:41;72.07;;;17.50;;
974;SDS011;6115;49.296;10.602;2024-01-07T20:44:41;73.50;;;18.10;;
974;SDS011;6115;49.296;10.602;2024-01-07T20:49:42;72.90;;;17.80;;
974;SDS011;6115;49.296;10.602;2024-01-07T20:54:43;72.77;;;18.03;;
974;SDS011;6115;49.296;10.602;2024-01-07T20:59:44;73.43;;;17.77;;
974;SDS011;6115;49.296;10.602;2024-01-07T21:04:45;72.30;;;17.80;;
974;SDS011;6115;49.296;10.602;2024-01-07T21:09:45;72.10;;;16.83;;
974;SDS011;6115;49.296;10.602;2024-01-07T21:14:46;73.17;;;18.60;;
974;SDS011;6115;49.296;10.602;2024-01-07T21:19:47;71.97;;;17.07;;
974;SDS011;6115;49.296;10.602;2024-01-07T21:24:48;72.57;;;17.90;;
974;SDS011;6115;49.296;10.602;2024-01-07T21:29:49;72.40;;;17.57;;
974;SDS011;6115;49.296;10.602;2024-01-07T21:34:49;72.30;;;17.47;;
974;SDS011;6115;49.296;10.602;2024-01-07T21:39:50;72.53;;;17.70;;
974;SDS011;6115;49.296;10.602;2024-01-07T21:44:51;71.80;;;17.33;;
974;SDS011;6115;49.296;10.602;2024-01-07T21:49:51;72.90;;;17.77;;
974;SDS011;6115;49.296;10.602;2024-01-07T21:54:52;72.10;;;17.70;;
974;SDS011;6115;49.296;10.602;2024-01-07T21:59:53;72.10;;;17.13;;
974;SDS011;6115;49.296;10.602;2024-01-07T22:04:54;72.47;;;17.50;;
974;SDS011;6115;49.296;10.602;2024-01-07T22:09:55;72.10;;;17.33;;
974;SDS011;6115;49.296;10.602;2024-01-07T22:14:55;72.17;;;17.63;;
974;SDS011;6115;49.296;10.602;2024-01-07T22:19:56;72.63;;;17.83;;
974;SDS011;6115;49.296;10.602;2024-01-07T22:24:56;71.70;;;17.00;;
974;SDS011;6115;49.296;10.602;2024-01-07T22:29:57;71.67;;;16.57;;
974;SDS011;6115;49.296;10.602;2024-01-07T22:34:57;72.77;;;17.37;;
974;SDS011;6115;49.296;10.602;2024-01-07T22:39:58;74.60;;;17.83;;
974;SDS011;6115;49.296;10.602;2024-01-07T22:44:59;72.63;;;16.80;;
974;SDS011;6115;49.296;10.602;2024-01-07T22:49:59;72.20;;;16.90;;
974;SDS011;6115;49.296;10.602;2024-01-07T22:55:00;72.57;;;17.27;;
974;SDS011;6115;49.296;10.602;2024-01-07T23:00:00;71.90;;;16.90;;
974;SDS011;6115;49.296;10.602;2024-01-07T23:05:01;71.60;;;16.90;;
974;SDS011;6115;49.296;10.602;2024-01-07T23:10:01;86.13;;;18.40;;
974;SDS011;6115;49.296;10.602;2024-01-07T23:15:02;72.00;;;16.77;;
974;SDS011;6115;49.296;10.602;2024-01-07T23:20:03;71.77;;;16.87;;
974;SDS011;6115;49.296;10.602;2024-01-07T23:25:05;71.80;;;16.67;;
974;SDS011;6115;49.296;10.602;2024-01-07T23:30:06;71.97;;;16.80;;
974;SDS011;6115;49.296;10.602;2024-01-07T23:35:07;71.17;;;16.10;;
974;SDS011;6115;49.296;10.602;2024-01-07T23:40:08;71.50;;;16.63;;
974;SDS011;6115;49.296;10.602;2024-01-07T23:45:09;72.90;;;17.03;;
974;SDS011;6115;49.296;10.602;2024-01-07T23:50:10;71.67;;;16.43;;
974;SDS011;6115;49.296;10.602;2024-01-07T23:55:10;71.90;;;16.70;;
